Rehoboth, New Mexico
Current Conditions -  °F | °C
As of 4:53 AM on Monday 20 Oct 2014 (Local Time) from KGUP Reporting Station
Clear Clear  
Wind Chill: 39°   Ceiling: Unl
Heat Index: 39°   Visibility: 10mi
Dew Point: 38°   Wind: 0mph
Humidity: 96%   Direction: NA
Pressure: 30.19"   Gusts: NA
Location:  35.53°N, 108.66°W
Report Text: KGUP 201053Z AUTO 00000KT 10SM CLR 04/03 A3019 RMK AO2 SLP171 T00390033
Loading
Personal Weather Stations






























Interactive Weather Map
Tropical Storm Tracking
New forecast layout! Learn more

10-Day Weather Forecast

Advertisements
Track Severe Weather on mobile